Climatologie pour Saint-Brevin les Pins
Jour • Résumé pour février 16, 2017 Système :  Métrique    Anglais   Mixte
« - 1 jour
+ 1 jour »
Jour Semaine Mois Année Personnalisé
  Maximum : Minimum : Moyenne :
Température sous abri : 16.0 °C 5.2 °C 8.9 °C
Point de rosée : 10.8 °C 4.8 °C 7.2 °C
Humidité : 99 % 60 % 90 %
Vitesse du vent : 9.7 km/h 0.0 km/h 1 km/h
Rafale : 12.9 km/h - -
Direction :- - South
Pression : 1032.1 hPa 1030.0 hPa -
Précipitations : 0.0 mm    
Historical Graphs
 
 
Tableau de données pour février 16, 2017
Heure Tempé Pt rosée Pression Vent Vitesse Rafale Humidité Taux pluie (/hr) Soleil
00:00 6.3 °C 6.0 °C 1031.7 hPa Calm   1.6 km/h 98 % 0.0 mm 0 W/m2
00:05 6.2 °C 5.9 °C 1031.4 hPa Calm   1.6 km/h 98 % 0.0 mm 0 W/m2
00:10 6.1 °C 5.8 °C 1031.7 hPa Calm   1.6 km/h 98 % 0.0 mm 0 W/m2
00:15 6.1 °C 5.8 °C 1031.7 hPa Calm   1.6 km/h 98 % 0.0 mm 0 W/m2
00:20 6.1 °C 5.8 °C 1031.7 hPa Calm   1.6 km/h 98 % 0.0 mm 0 W/m2
00:30 5.5 °C 5.2 °C 1031.7 hPa Calm     98 % 0.0 mm 0 W/m2
00:40 5.9 °C 5.7 °C 1031.7 hPa Calm     98 % 0.0 mm 0 W/m2
00:45 5.6 °C 5.3 °C 1031.7 hPa Calm     98 % 0.0 mm 0 W/m2
00:50 5.5 °C 5.2 °C 1031.7 hPa Calm     98 % 0.0 mm 0 W/m2
00:55 5.3 °C 5.0 °C 1031.7 hPa Calm     98 % 0.0 mm 0 W/m2
01:00 5.2 °C 4.9 °C 1031.7 hPa Calm     98 % 0.0 mm 0 W/m2
01:05 5.2 °C 4.9 °C 1031.7 hPa Calm     98 % 0.0 mm 0 W/m2
01:10 5.2 °C 4.9 °C 1031.7 hPa Calm     98 % 0.0 mm 0 W/m2
01:15 5.2 °C 4.9 °C 1032.1 hPa Calm     98 % 0.0 mm 0 W/m2
01:20 5.4 °C 5.1 °C 1032.1 hPa Calm     98 % 0.0 mm 0 W/m2
01:30 5.3 °C 5.0 °C 1031.7 hPa Calm     98 % 0.0 mm 0 W/m2
01:40 5.7 °C 5.4 °C 1031.7 hPa Calm     98 % 0.0 mm 0 W/m2
01:50 5.8 °C 5.5 °C 1031.7 hPa Calm     98 % 0.0 mm 0 W/m2
01:55 5.8 °C 5.5 °C 1031.7 hPa Calm     98 % 0.0 mm 0 W/m2
02:00 5.7 °C 5.4 °C 1031.7 hPa Calm     98 % 0.0 mm 0 W/m2
02:10 5.8 °C 5.5 °C 1031.7 hPa Calm     98 % 0.0 mm 0 W/m2
02:15 5.9 °C 5.7 °C 1031.7 hPa Calm     98 % 0.0 mm 0 W/m2
02:20 6.0 °C 5.7 °C 1031.7 hPa SSE 3.2 km/h 6.4 km/h 98 % 0.0 mm 0 W/m2
02:25 6.1 °C 5.8 °C 1031.7 hPa SSE 1.6 km/h 6.4 km/h 98 % 0.0 mm 0 W/m2
02:30 6.3 °C 6.0 °C 1031.7 hPa Calm   6.4 km/h 98 % 0.0 mm 0 W/m2
02:40 6.3 °C 6.0 °C 1031.7 hPa Calm   1.6 km/h 98 % 0.0 mm 0 W/m2
02:45 6.2 °C 5.9 °C 1031.7 hPa Calm     98 % 0.0 mm 0 W/m2
02:55 6.2 °C 5.9 °C 1031.7 hPa Calm     98 % 0.0 mm 0 W/m2
03:00 6.3 °C 6.0 °C 1031.7 hPa Calm     98 % 0.0 mm 0 W/m2
03:10 6.3 °C 6.0 °C 1031.7 hPa Calm   1.6 km/h 98 % 0.0 mm 0 W/m2
03:15 6.2 °C 5.9 °C 1031.7 hPa Calm     98 % 0.0 mm 0 W/m2
03:20 6.3 °C 6.0 °C 1031.7 hPa Calm   1.6 km/h 98 % 0.0 mm 0 W/m2
03:30 6.4 °C 6.2 °C 1031.7 hPa Calm     98 % 0.0 mm 0 W/m2
03:40 6.4 °C 6.2 °C 1031.7 hPa Calm     98 % 0.0 mm 0 W/m2
03:45 6.4 °C 6.1 °C 1031.7 hPa Calm     98 % 0.0 mm 0 W/m2
03:50 6.4 °C 6.2 °C 1031.7 hPa Calm     98 % 0.0 mm 0 W/m2
04:00 6.4 °C 6.1 °C 1031.7 hPa Calm     98 % 0.0 mm 0 W/m2
04:05 6.5 °C 6.2 °C 1031.7 hPa Calm     98 % 0.0 mm 0 W/m2
04:10 6.5 °C 6.2 °C 1031.7 hPa Calm     98 % 0.0 mm 0 W/m2
04:20 6.6 °C 6.3 °C 1031.7 hPa Calm     98 % 0.0 mm 0 W/m2
04:25 6.6 °C 6.3 °C 1031.7 hPa Calm     98 % 0.0 mm 0 W/m2
04:30 6.6 °C 6.3 °C 1031.7 hPa Calm     98 % 0.0 mm 0 W/m2
04:35 6.7 °C 6.4 °C 1031.7 hPa Calm     98 % 0.0 mm 0 W/m2
04:40 6.7 °C 6.4 °C 1031.4 hPa Calm     98 % 0.0 mm 0 W/m2
04:50 7.1 °C 6.8 °C 1031.4 hPa Calm     98 % 0.0 mm 0 W/m2
05:00 7.2 °C 7.0 °C 1031.7 hPa Calm     99 % 0.0 mm 0 W/m2
05:10 7.2 °C 7.0 °C 1031.7 hPa Calm     99 % 0.0 mm 0 W/m2
05:15 7.2 °C 6.9 °C 1031.7 hPa Calm     98 % 0.0 mm 0 W/m2
05:25 7.3 °C 7.1 °C 1031.4 hPa Calm   1.6 km/h 99 % 0.0 mm 0 W/m2
05:30 7.2 °C 6.9 °C 1031.4 hPa Calm   1.6 km/h 98 % 0.0 mm 0 W/m2
05:40 7.0 °C 6.7 °C 1031.4 hPa Calm     98 % 0.0 mm 0 W/m2
05:45 6.9 °C 6.7 °C 1031.7 hPa Calm     98 % 0.0 mm 0 W/m2
05:50 6.9 °C 6.7 °C 1031.7 hPa Calm     98 % 0.0 mm 0 W/m2
05:55 6.9 °C 6.7 °C 1031.7 hPa Calm     98 % 0.0 mm 0 W/m2
06:00 6.9 °C 6.6 °C 1031.7 hPa Calm     98 % 0.0 mm 0 W/m2
06:10 6.6 °C 6.3 °C 1031.7 hPa SSE 1.6 km/h 3.2 km/h 98 % 0.0 mm 0 W/m2
06:15 6.6 °C 6.3 °C 1031.7 hPa Calm   3.2 km/h 98 % 0.0 mm 0 W/m2
06:25 7.1 °C 6.9 °C 1031.4 hPa Calm     99 % 0.0 mm 0 W/m2
06:35 6.9 °C 6.7 °C 1031.4 hPa Calm   1.6 km/h 99 % 0.0 mm 0 W/m2
06:40 6.7 °C 6.4 °C 1031.4 hPa SSE 1.6 km/h 1.6 km/h 98 % 0.0 mm 0 W/m2
06:45 6.4 °C 6.2 °C 1031.4 hPa Calm   3.2 km/h 98 % 0.0 mm 0 W/m2
06:50 6.4 °C 6.2 °C 1031.4 hPa Calm   3.2 km/h 98 % 0.0 mm 0 W/m2
06:55 6.7 °C 6.4 °C 1031.4 hPa Calm   3.2 km/h 98 % 0.0 mm 0 W/m2
07:00 6.6 °C 6.4 °C 1031.4 hPa Calm   4.8 km/h 99 % 0.0 mm 0 W/m2
07:10 6.8 °C 6.7 °C 1031.4 hPa Calm   3.2 km/h 99 % 0.0 mm 0 W/m2
07:15 6.5 °C 6.4 °C 1031.4 hPa Calm   1.6 km/h 99 % 0.0 mm 0 W/m2
07:20 6.4 °C 6.2 °C 1031.4 hPa Calm   1.6 km/h 98 % 0.0 mm 0 W/m2
07:25 6.2 °C 5.9 °C 1031.4 hPa Calm   1.6 km/h 98 % 0.0 mm 0 W/m2
07:30 6.1 °C 5.8 °C 1031.4 hPa Calm   1.6 km/h 98 % 0.0 mm 0 W/m2
07:40 5.9 °C 5.7 °C 1031.4 hPa Calm     98 % 0.0 mm 0 W/m2
07:45 5.8 °C 5.5 °C 1031.4 hPa Calm     98 % 0.0 mm 0 W/m2
07:55 6.2 °C 5.9 °C 1031.4 hPa Calm     98 % 0.0 mm 0 W/m2
08:00 6.1 °C 5.9 °C 1031.4 hPa Calm     99 % 0.0 mm 0 W/m2
08:10 6.5 °C 6.4 °C 1031.4 hPa Calm   1.6 km/h 99 % 0.0 mm 0 W/m2
08:15 6.4 °C 6.3 °C 1031.4 hPa Calm     99 % 0.0 mm 0 W/m2
08:20 6.3 °C 6.1 °C 1031.4 hPa Calm   1.6 km/h 99 % 0.0 mm 0 W/m2
08:35 6.4 °C 6.3 °C 1031.7 hPa Calm     99 % 0.0 mm 0 W/m2
08:40 6.6 °C 6.5 °C 1031.7 hPa Calm     99 % 0.0 mm 5 W/m2
08:45 6.7 °C 6.6 °C 1031.7 hPa Calm     99 % 0.0 mm 7 W/m2
08:50 6.8 °C 6.7 °C 1031.7 hPa Calm     99 % 0.0 mm 9 W/m2
09:00 6.7 °C 6.6 °C 1031.7 hPa Calm     99 % 0.0 mm 44 W/m2
09:10 7.2 °C 7.0 °C 1031.7 hPa Calm   1.6 km/h 99 % 0.0 mm 70 W/m2
09:15 7.4 °C 7.3 °C 1031.7 hPa Calm   1.6 km/h 99 % 0.0 mm 79 W/m2
09:25 7.8 °C 7.7 °C 1031.7 hPa Calm   4.8 km/h 99 % 0.0 mm 95 W/m2
09:35 8.3 °C 8.1 °C 1031.7 hPa Calm   6.4 km/h 99 % 0.0 mm 104 W/m2
09:40 8.4 °C 8.2 °C 1031.7 hPa ESE 1.6 km/h 4.8 km/h 99 % 0.0 mm 114 W/m2
09:45 8.6 °C 8.5 °C 1031.7 hPa East 4.8 km/h 4.8 km/h 99 % 0.0 mm 121 W/m2
09:55 9.1 °C 8.9 °C 1031.4 hPa Calm   8.0 km/h 99 % 0.0 mm 76 W/m2
10:00 9.3 °C 9.1 °C 1031.4 hPa Calm   4.8 km/h 99 % 0.0 mm 72 W/m2
10:10 9.7 °C 9.5 °C 1031.7 hPa Calm   8.0 km/h 99 % 0.0 mm 70 W/m2
10:15 9.8 °C 9.5 °C 1031.7 hPa East 4.8 km/h 8.0 km/h 98 % 0.0 mm 58 W/m2
10:20 9.9 °C 9.6 °C 1031.7 hPa Calm   4.8 km/h 98 % 0.0 mm 278 W/m2
10:25 10.2 °C 9.8 °C 1031.7 hPa North 1.6 km/h 4.8 km/h 97 % 0.0 mm 283 W/m2
10:30 10.5 °C 10.0 °C 1031.7 hPa East 3.2 km/h 4.8 km/h 97 % 0.0 mm 294 W/m2
10:35 10.8 °C 10.1 °C 1031.7 hPa Calm   4.8 km/h 95 % 0.0 mm 301 W/m2
10:40 11.0 °C 10.1 °C 1032.1 hPa East 1.6 km/h 3.2 km/h 94 % 0.0 mm 295 W/m2
10:45 11.1 °C 9.9 °C 1032.1 hPa NW 3.2 km/h 9.7 km/h 92 % 0.0 mm 325 W/m2
10:50 10.8 °C 9.6 °C 1032.1 hPa NW 1.6 km/h 9.7 km/h 92 % 0.0 mm 329 W/m2
10:55 11.1 °C 9.8 °C 1032.1 hPa Calm   6.4 km/h 92 % 0.0 mm 345 W/m2
11:00 11.2 °C 9.8 °C 1032.1 hPa NW 1.6 km/h 6.4 km/h 91 % 0.0 mm 359 W/m2
11:10 11.8 °C 9.9 °C 1031.7 hPa Calm   3.2 km/h 88 % 0.0 mm 371 W/m2
11:15 12.0 °C 10.1 °C 1031.7 hPa Calm   3.2 km/h 88 % 0.0 mm 302 W/m2
11:25 12.7 °C 9.9 °C 1031.7 hPa Calm   4.8 km/h 83 % 0.0 mm 408 W/m2
11:30 12.5 °C 9.3 °C 1031.7 hPa East 1.6 km/h 4.8 km/h 81 % 0.0 mm 410 W/m2
11:40 13.0 °C 9.6 °C 1031.7 hPa East 1.6 km/h 3.2 km/h 80 % 0.0 mm 429 W/m2
11:45 13.1 °C 10.1 °C 1031.7 hPa Calm   1.6 km/h 82 % 0.0 mm 439 W/m2
11:50 13.4 °C 10.4 °C 1031.7 hPa NNE 1.6 km/h 3.2 km/h 82 % 0.0 mm 441 W/m2
11:55 13.4 °C 10.2 °C 1031.7 hPa Calm   3.2 km/h 81 % 0.0 mm 448 W/m2
12:00 13.3 °C 10.3 °C 1031.7 hPa Calm   3.2 km/h 82 % 0.0 mm 455 W/m2
12:10 14.2 °C 10.2 °C 1031.7 hPa NE 1.6 km/h 8.0 km/h 77 % 0.0 mm 464 W/m2
12:20 14.1 °C 10.3 °C 1031.7 hPa Calm   6.4 km/h 78 % 0.0 mm 480 W/m2
12:25 14.2 °C 10.4 °C 1031.7 hPa Calm   6.4 km/h 78 % 0.0 mm 499 W/m2
12:30 14.4 °C 10.8 °C 1031.7 hPa NNE 3.2 km/h 6.4 km/h 79 % 0.0 mm 480 W/m2
12:40 14.6 °C 10.0 °C 1031.4 hPa NNW 3.2 km/h 6.4 km/h 74 % 0.0 mm 492 W/m2
12:50 14.7 °C 10.3 °C 1031.4 hPa NNW 4.8 km/h 6.4 km/h 75 % 0.0 mm 490 W/m2
12:55 15.1 °C 9.2 °C 1031.4 hPa NNE 3.2 km/h 9.7 km/h 68 % 0.0 mm 510 W/m2
13:00 15.4 °C 10.2 °C 1031.4 hPa ENE 1.6 km/h 9.7 km/h 71 % 0.0 mm 564 W/m2
13:10 15.6 °C 10.2 °C 1031.0 hPa NNW 1.6 km/h 8.0 km/h 70 % 0.0 mm 520 W/m2
13:15 15.7 °C 9.6 °C 1031.0 hPa Calm   9.7 km/h 67 % 0.0 mm 504 W/m2
13:25 15.7 °C 9.8 °C 1031.0 hPa Calm   11.3 km/h 68 % 0.0 mm 494 W/m2
13:30 15.6 °C 8.6 °C 1031.0 hPa NE 3.2 km/h 8.0 km/h 63 % 0.0 mm 497 W/m2
13:40 15.8 °C 9.0 °C 1030.7 hPa NE 1.6 km/h 11.3 km/h 64 % 0.0 mm 496 W/m2
13:45 16.0 °C 8.2 °C 1030.7 hPa North 8.0 km/h 11.3 km/h 60 % 0.0 mm 492 W/m2
13:50 15.6 °C 7.8 °C 1030.7 hPa ENE 1.6 km/h 8.0 km/h 60 % 0.0 mm 490 W/m2
13:55 15.3 °C 8.3 °C 1030.7 hPa East 3.2 km/h 8.0 km/h 63 % 0.0 mm 490 W/m2
14:00 15.4 °C 8.0 °C 1030.7 hPa ENE 3.2 km/h 11.3 km/h 61 % 0.0 mm 487 W/m2
14:10 15.4 °C 8.2 °C 1030.7 hPa East 4.8 km/h 8.0 km/h 62 % 0.0 mm 482 W/m2
14:15 15.6 °C 8.6 °C 1030.4 hPa SE 4.8 km/h 8.0 km/h 63 % 0.0 mm 462 W/m2
14:35 15.7 °C 9.2 °C 1030.4 hPa ENE 4.8 km/h 8.0 km/h 65 % 0.0 mm 454 W/m2
14:40 15.6 °C 9.3 °C 1030.4 hPa ENE 1.6 km/h 8.0 km/h 66 % 0.0 mm 446 W/m2
14:50 15.2 °C 9.8 °C 1030.0 hPa West 8.0 km/h 8.0 km/h 70 % 0.0 mm 432 W/m2
15:00 14.3 °C 9.1 °C 1030.0 hPa WNW 4.8 km/h 11.3 km/h 71 % 0.0 mm 415 W/m2
15:10 13.8 °C 8.9 °C 1030.0 hPa West 1.6 km/h 9.7 km/h 72 % 0.0 mm 404 W/m2
15:15 14.1 °C 9.5 °C 1030.0 hPa West 3.2 km/h 9.7 km/h 74 % 0.0 mm 396 W/m2
15:25 13.8 °C 9.3 °C 1030.0 hPa WNW 1.6 km/h 8.0 km/h 74 % 0.0 mm 380 W/m2
15:30 13.4 °C 9.0 °C 1030.0 hPa West 6.4 km/h 11.3 km/h 75 % 0.0 mm 371 W/m2
15:40 13.2 °C 9.4 °C 1030.0 hPa West 4.8 km/h 11.3 km/h 78 % 0.0 mm 352 W/m2
15:45 12.9 °C 9.2 °C 1030.0 hPa WSW 4.8 km/h 11.3 km/h 78 % 0.0 mm 343 W/m2
15:55 12.8 °C 8.9 °C 1030.0 hPa WSW 8.0 km/h 11.3 km/h 77 % 0.0 mm 323 W/m2
16:00 12.8 °C 8.7 °C 1030.0 hPa WSW 6.4 km/h 11.3 km/h 76 % 0.0 mm 313 W/m2
16:10 13.2 °C 8.6 °C 1030.0 hPa West 9.7 km/h 11.3 km/h 74 % 0.0 mm 272 W/m2
16:15 13.0 °C 8.7 °C 1030.0 hPa WSW 4.8 km/h 9.7 km/h 75 % 0.0 mm 283 W/m2
16:25 13.1 °C 8.6 °C 1030.0 hPa West 6.4 km/h 9.7 km/h 74 % 0.0 mm 267 W/m2
16:30 12.8 °C 8.3 °C 1030.0 hPa West 4.8 km/h 9.7 km/h 74 % 0.0 mm 258 W/m2
16:40 12.8 °C 8.7 °C 1030.0 hPa West 6.4 km/h 12.9 km/h 76 % 0.0 mm 165 W/m2
16:45 12.8 °C 8.8 °C 1030.0 hPa West 3.2 km/h 9.7 km/h 77 % 0.0 mm 241 W/m2
16:55 13.2 °C 8.9 °C 1030.0 hPa West 6.4 km/h 8.0 km/h 75 % 0.0 mm 95 W/m2
17:00 13.0 °C 8.7 °C 1030.0 hPa West 3.2 km/h 9.7 km/h 75 % 0.0 mm 63 W/m2
17:10 12.5 °C 8.6 °C 1030.0 hPa SW 1.6 km/h 8.0 km/h 77 % 0.0 mm 77 W/m2
17:15 12.2 °C 8.5 °C 1030.0 hPa WNW 4.8 km/h 8.0 km/h 78 % 0.0 mm 72 W/m2
17:25 12.1 °C 8.5 °C 1030.0 hPa Calm   6.4 km/h 79 % 0.0 mm 65 W/m2
17:30 12.1 °C 8.5 °C 1030.0 hPa Calm   6.4 km/h 79 % 0.0 mm 70 W/m2
17:40 12.1 °C 8.6 °C 1030.0 hPa West 3.2 km/h 8.0 km/h 79 % 0.0 mm 62 W/m2
17:45 12.1 °C 8.6 °C 1030.0 hPa West 1.6 km/h 8.0 km/h 79 % 0.0 mm 58 W/m2
17:50 12.1 °C 8.6 °C 1030.0 hPa Calm   8.0 km/h 79 % 0.0 mm 53 W/m2
17:55 12.1 °C 8.6 °C 1030.0 hPa Calm   6.4 km/h 79 % 0.0 mm 46 W/m2
18:05 11.8 °C 8.5 °C 1030.0 hPa West 1.6 km/h 6.4 km/h 80 % 0.0 mm 30 W/m2
18:10 11.6 °C 8.4 °C 1030.0 hPa Calm   6.4 km/h 81 % 0.0 mm 23 W/m2
18:15 11.2 °C 8.4 °C 1030.0 hPa Calm   3.2 km/h 83 % 0.0 mm 18 W/m2
18:25 10.3 °C 8.1 °C 1030.0 hPa Calm   1.6 km/h 86 % 0.0 mm 11 W/m2
18:30 10.0 °C 7.9 °C 1030.0 hPa Calm   1.6 km/h 87 % 0.0 mm 7 W/m2
18:40 9.3 °C 7.4 °C 1030.0 hPa Calm     88 % 0.0 mm 0 W/m2
18:45 9.1 °C 7.4 °C 1030.0 hPa Calm     89 % 0.0 mm 0 W/m2
18:55 8.8 °C 7.4 °C 1030.0 hPa Calm     91 % 0.0 mm 0 W/m2
19:00 8.6 °C 7.2 °C 1030.0 hPa Calm     91 % 0.0 mm 0 W/m2
19:10 8.4 °C 7.2 °C 1030.0 hPa Calm     92 % 0.0 mm 0 W/m2
19:20 8.0 °C 6.9 °C 1030.0 hPa Calm     93 % 0.0 mm 0 W/m2
19:25 7.7 °C 6.7 °C 1030.4 hPa Calm     93 % 0.0 mm 0 W/m2
19:30 7.6 °C 6.5 °C 1030.4 hPa Calm     93 % 0.0 mm 0 W/m2
19:40 7.2 °C 6.2 °C 1030.0 hPa Calm     93 % 0.0 mm 0 W/m2
19:50 7.1 °C 6.2 °C 1030.4 hPa Calm     94 % 0.0 mm 0 W/m2
19:55 7.3 °C 6.5 °C 1030.0 hPa Calm     95 % 0.0 mm 0 W/m2
20:05 7.1 °C 6.2 °C 1030.0 hPa Calm     94 % 0.0 mm 0 W/m2
20:10 7.0 °C 6.3 °C 1030.4 hPa Calm     95 % 0.0 mm 0 W/m2
20:15 7.0 °C 6.3 °C 1030.4 hPa Calm     95 % 0.0 mm 0 W/m2
20:20 7.0 °C 6.3 °C 1030.4 hPa Calm     95 % 0.0 mm 0 W/m2
20:35 6.8 °C 6.1 °C 1030.4 hPa Calm     95 % 0.0 mm 0 W/m2
20:40 6.7 °C 5.9 °C 1030.4 hPa Calm     95 % 0.0 mm 0 W/m2
20:45 6.7 °C 5.9 °C 1030.4 hPa Calm     95 % 0.0 mm 0 W/m2
20:55 7.0 °C 6.4 °C 1030.4 hPa Calm     96 % 0.0 mm 0 W/m2
21:00 7.1 °C 6.5 °C 1030.4 hPa Calm     96 % 0.0 mm 0 W/m2
21:10 6.8 °C 6.2 °C 1030.4 hPa Calm     96 % 0.0 mm 0 W/m2
21:15 6.7 °C 5.9 °C 1030.4 hPa Calm     95 % 0.0 mm 0 W/m2
21:20 6.5 °C 5.9 °C 1030.4 hPa Calm     96 % 0.0 mm 0 W/m2
21:30 6.3 °C 5.7 °C 1030.4 hPa Calm     96 % 0.0 mm 0 W/m2
21:40 6.2 °C 5.6 °C 1030.4 hPa Calm     96 % 0.0 mm 0 W/m2
21:50 5.9 °C 5.4 °C 1030.4 hPa Calm     96 % 0.0 mm 0 W/m2
22:00 6.2 °C 5.6 °C 1030.4 hPa Calm     96 % 0.0 mm 0 W/m2
22:10 5.9 °C 5.4 °C 1030.7 hPa Calm     96 % 0.0 mm 0 W/m2
22:15 5.8 °C 5.2 °C 1030.7 hPa Calm     96 % 0.0 mm 0 W/m2
22:25 5.8 °C 5.2 °C 1030.4 hPa Calm     96 % 0.0 mm 0 W/m2
22:30 5.9 °C 5.4 °C 1030.4 hPa Calm     97 % 0.0 mm 0 W/m2
22:40 6.1 °C 5.7 °C 1030.4 hPa Calm     97 % 0.0 mm 0 W/m2
22:50 6.1 °C 5.6 °C 1030.4 hPa Calm     97 % 0.0 mm 0 W/m2
22:55 6.1 °C 5.6 °C 1030.4 hPa Calm     97 % 0.0 mm 0 W/m2
23:00 6.1 °C 5.6 °C 1030.4 hPa Calm     97 % 0.0 mm 0 W/m2
23:10 5.8 °C 5.2 °C 1030.4 hPa Calm     96 % 0.0 mm 0 W/m2
23:15 5.7 °C 5.1 °C 1030.4 hPa Calm     96 % 0.0 mm 0 W/m2
23:20 5.6 °C 5.0 °C 1030.4 hPa Calm     96 % 0.0 mm 0 W/m2
23:30 5.4 °C 4.8 °C 1030.4 hPa Calm     96 % 0.0 mm 0 W/m2
23:40 5.4 °C 5.0 °C 1030.4 hPa Calm     97 % 0.0 mm 0 W/m2
23:45 5.3 °C 4.9 °C 1030.4 hPa Calm     97 % 0.0 mm 0 W/m2
23:50 5.3 °C 4.9 °C 1030.4 hPa Calm     97 % 0.0 mm 0 W/m2
23:55 5.2 °C 4.8 °C 1030.4 hPa Calm     97 % 0.0 mm 0 W/m2
Avec l'autorisation de Weather Underground - 1.5 mb